Time,TemperatureF,DewpointF,PressureIn,WindDirection,WindDirectionDegrees,WindSpeedMPH,WindSpeedGustMPH,Humidity,HourlyPrecipIn,Conditions,Clouds,dailyrainin,SoftwareType,DateUTC
2013-01-31 00:00:00,48.2,45.7,29.42,SE,137,1.0,0.0,91,0.00,RA,RA,0.00,WeatherDisplay:10.37,2013-01-31 05:00:00,
2013-01-31 00:10:00,48.2,45.7,29.40,SSE,156,3.0,0.0,91,0.00,BKN,BKN,0.00,WeatherDisplay:10.37,2013-01-31 05:10:00,
2013-01-31 00:20:00,48.2,45.7,29.39,SSE,151,3.0,0.0,91,0.00,BKN,BKN,0.00,WeatherDisplay:10.37,2013-01-31 05:20:00,
2013-01-31 00:30:00,48.2,45.7,29.38,SSE,151,5.0,0.0,91,0.01,RA,RA,0.01,WeatherDisplay:10.37,2013-01-31 05:30:00,
2013-01-31 00:40:00,48.4,45.9,29.36,South,169,7.0,0.0,91,0.00,BKN,BKN,0.01,WeatherDisplay:10.37,2013-01-31 05:40:00,
2013-01-31 00:50:00,48.7,46.2,29.34,SSE,153,6.0,0.0,91,0.00,BKN,BKN,0.01,WeatherDisplay:10.37,2013-01-31 05:50:00,
2013-01-31 01:00:00,48.7,46.2,29.34,SSE,158,8.0,0.0,91,0.00,BKN,BKN,0.01,WeatherDisplay:10.37,2013-01-31 06:00:00,
2013-01-31 01:10:00,49.0,46.5,29.32,SSE,160,7.0,0.0,91,0.00,BKN,BKN,0.01,WeatherDisplay:10.37,2013-01-31 06:10:00,
2013-01-31 01:20:00,49.3,46.8,29.31,SSE,166,9.0,0.0,91,0.00,BKN,BKN,0.01,WeatherDisplay:10.37,2013-01-31 06:20:00,
2013-01-31 01:30:00,49.6,47.0,29.30,SSE,162,7.0,0.0,91,0.00,BKN,BKN,0.01,WeatherDisplay:10.37,2013-01-31 06:30:00,
2013-01-31 01:40:00,49.5,47.0,29.29,SSE,168,9.0,0.0,91,0.00,BKN,BKN,0.01,WeatherDisplay:10.37,2013-01-31 06:40:00,
2013-01-31 01:50:00,49.8,47.3,29.28,SSE,163,8.0,0.0,91,0.00,BKN,BKN,0.01,WeatherDisplay:10.37,2013-01-31 06:50:00,
2013-01-31 02:00:00,50.0,47.5,29.27,South,171,10.0,0.0,91,0.01,RA,RA,0.02,WeatherDisplay:10.37,2013-01-31 07:00:00,
2013-01-31 02:10:00,50.4,47.8,29.27,SSE,167,7.0,0.0,91,0.00,BKN,BKN,0.02,WeatherDisplay:10.37,2013-01-31 07:10:00,
2013-01-31 02:20:00,50.5,48.0,29.25,SSE,163,9.0,0.0,91,0.00,BKN,BKN,0.02,WeatherDisplay:10.37,2013-01-31 07:20:00,
2013-01-31 02:30:00,50.9,48.4,29.24,SSE,152,9.0,0.0,91,0.01,RA,RA,0.03,WeatherDisplay:10.37,2013-01-31 07:30:00,
2013-01-31 02:40:00,50.9,48.4,29.24,SSE,164,8.0,0.0,91,0.01,RA,RA,0.04,WeatherDisplay:10.37,2013-01-31 07:40:00,
2013-01-31 02:50:00,51.1,48.5,29.21,South,172,9.0,0.0,91,0.00,BKN,BKN,0.04,WeatherDisplay:10.37,2013-01-31 07:50:00,
2013-01-31 03:00:00,51.4,48.8,29.20,South,173,15.0,0.0,91,0.01,RA,RA,0.05,WeatherDisplay:10.37,2013-01-31 08:00:00,
2013-01-31 03:10:00,51.4,48.9,29.18,SSE,164,12.0,0.0,91,0.02,RA,RA,0.07,WeatherDisplay:10.37,2013-01-31 08:10:00,
2013-01-31 03:20:00,51.4,48.9,29.16,SSE,165,18.0,0.0,91,0.03,RA,RA,0.10,WeatherDisplay:10.37,2013-01-31 08:20:00,
2013-01-31 03:30:00,51.3,48.7,29.16,SSE,166,14.0,0.0,91,0.00,BKN,BKN,0.10,WeatherDisplay:10.37,2013-01-31 08:30:00,
2013-01-31 03:40:00,51.4,48.9,29.15,SSE,167,10.0,0.0,91,0.00,BKN,BKN,0.10,WeatherDisplay:10.37,2013-01-31 08:40:00,
2013-01-31 03:50:00,51.4,48.9,29.13,SSE,163,12.0,0.0,91,0.00,BKN,BKN,0.10,WeatherDisplay:10.37,2013-01-31 08:50:00,
2013-01-31 04:00:00,51.8,49.3,29.12,SSE,168,12.0,0.0,91,0.00,BKN,BKN,0.10,WeatherDisplay:10.37,2013-01-31 09:00:00,
2013-01-31 04:10:00,51.8,49.3,29.10,South,171,9.0,0.0,91,0.00,BKN,BKN,0.10,WeatherDisplay:10.37,2013-01-31 09:10:00,
2013-01-31 04:20:00,51.9,49.4,29.08,South,171,12.0,0.0,91,0.00,BKN,BKN,0.10,WeatherDisplay:10.37,2013-01-31 09:20:00,
2013-01-31 04:30:00,52.3,49.8,29.07,SSE,167,12.0,0.0,91,0.00,BKN,BKN,0.10,WeatherDisplay:10.37,2013-01-31 09:30:00,
2013-01-31 04:40:00,52.1,49.6,29.06,SSE,164,12.0,0.0,91,0.00,BKN,BKN,0.10,WeatherDisplay:10.37,2013-01-31 09:40:00,
2013-01-31 04:50:00,52.3,49.7,29.06,South,172,15.0,0.0,91,0.00,BKN,BKN,0.10,WeatherDisplay:10.37,2013-01-31 09:50:00,
2013-01-31 05:00:00,52.7,50.1,29.04,SSE,165,15.0,0.0,91,0.00,BKN,BKN,0.10,WeatherDisplay:10.37,2013-01-31 10:00:00,
2013-01-31 05:10:00,52.5,50.0,29.02,SSE,153,10.0,0.0,91,0.00,BKN,BKN,0.10,WeatherDisplay:10.37,2013-01-31 10:10:00,
2013-01-31 05:20:00,52.8,50.2,29.01,South,170,12.0,0.0,91,0.00,BKN,BKN,0.10,WeatherDisplay:10.37,2013-01-31 10:20:00,
2013-01-31 05:30:00,53.1,50.5,28.99,SSE,155,15.0,0.0,91,0.00,BKN,BKN,0.10,WeatherDisplay:10.37,2013-01-31 10:30:00,
2013-01-31 05:40:00,53.1,50.5,28.98,SSE,166,13.0,0.0,91,0.00,BKN,BKN,0.10,WeatherDisplay:10.37,2013-01-31 10:40:00,
2013-01-31 05:50:00,53.1,50.5,28.98,SSE,165,12.0,0.0,91,0.00,BKN,BKN,0.10,WeatherDisplay:10.37,2013-01-31 10:50:00,
2013-01-31 05:59:00,53.2,50.7,28.98,South,172,18.0,0.0,91,0.00,BKN,BKN,0.10,WeatherDisplay:10.37,2013-01-31 10:59:00,
2013-01-31 06:10:00,53.3,51.1,28.98,South,170,13.0,0.0,92,0.00,BKN,BKN,0.10,WeatherDisplay:10.37,2013-01-31 11:10:00,
2013-01-31 06:20:00,53.5,51.2,28.98,South,169,18.0,0.0,92,0.00,BKN,BKN,0.10,WeatherDisplay:10.37,2013-01-31 11:20:00,
2013-01-31 06:30:00,54.0,51.4,29.01,South,189,10.0,0.0,91,0.00,BKN,BKN,0.10,WeatherDisplay:10.37,2013-01-31 11:30:00,
2013-01-31 06:40:00,53.1,50.5,29.01,South,185,10.0,0.0,91,0.00,BKN,BKN,0.10,WeatherDisplay:10.37,2013-01-31 11:40:00,
2013-01-31 06:50:00,52.3,49.8,29.02,South,183,6.0,0.0,91,0.00,BKN,BKN,0.10,WeatherDisplay:10.37,2013-01-31 11:50:00,
2013-01-31 06:59:00,52.0,49.4,29.00,South,181,6.0,0.0,91,0.00,BKN,BKN,0.10,WeatherDisplay:10.37,2013-01-31 11:59:00,
2013-01-31 07:10:00,51.5,49.3,29.00,South,177,7.0,0.0,92,0.00,BKN,BKN,0.10,WeatherDisplay:10.37,2013-01-31 12:10:00,
2013-01-31 07:20:00,51.0,48.7,28.96,South,176,9.0,0.0,92,0.00,BKN,BKN,0.10,WeatherDisplay:10.37,2013-01-31 12:20:00,
2013-01-31 07:30:00,50.5,48.0,28.95,SSE,160,7.0,0.0,91,0.00,BKN,BKN,0.10,WeatherDisplay:10.37,2013-01-31 12:30:00,
2013-01-31 07:40:00,50.3,47.8,28.95,SSE,163,12.0,0.0,91,0.00,BKN,BKN,0.10,WeatherDisplay:10.37,2013-01-31 12:40:00,
2013-01-31 07:50:00,50.4,47.8,28.94,South,178,7.0,0.0,91,0.00,BKN,BKN,0.10,WeatherDisplay:10.37,2013-01-31 12:50:00,
2013-01-31 08:00:00,50.4,47.8,28.94,South,176,9.0,0.0,91,0.00,BKN,BKN,0.10,WeatherDisplay:10.37,2013-01-31 13:00:00,
2013-01-31 08:10:00,50.2,47.7,28.94,South,169,9.0,0.0,91,0.00,BKN,BKN,0.10,WeatherDisplay:10.37,2013-01-31 13:10:00,
2013-01-31 08:20:00,50.4,47.8,28.93,South,173,9.0,0.0,91,0.00,BKN,BKN,0.10,WeatherDisplay:10.37,2013-01-31 13:20:00,
2013-01-31 08:30:00,50.2,47.7,28.92,South,172,10.0,0.0,91,0.00,BKN,BKN,0.10,WeatherDisplay:10.37,2013-01-31 13:30:00,
2013-01-31 08:40:00,50.0,47.5,28.92,South,175,13.0,0.0,91,0.00,BKN,BKN,0.10,WeatherDisplay:10.37,2013-01-31 13:40:00,
2013-01-31 08:50:00,49.4,46.9,28.95,SSW,197,16.0,0.0,91,0.00,BKN,BKN,0.10,WeatherDisplay:10.37,2013-01-31 13:50:00,
2013-01-31 09:00:00,44.2,41.4,28.98,SW,223,10.0,0.0,90,0.00,BKN,BKN,0.10,WeatherDisplay:10.37,2013-01-31 14:00:00,
2013-01-31 09:10:00,42.8,40.1,28.98,SW,214,10.0,0.0,90,0.00,BKN,BKN,0.10,WeatherDisplay:10.37,2013-01-31 14:10:00,
2013-01-31 09:20:00,41.8,39.4,29.00,SSW,208,7.0,0.0,91,0.00,BKN,BKN,0.10,WeatherDisplay:10.37,2013-01-31 14:20:00,
2013-01-31 09:30:00,41.0,38.3,29.01,SW,214,9.0,0.0,90,0.00,BKN,BKN,0.10,WeatherDisplay:10.37,2013-01-31 14:30:00,
2013-01-31 09:40:00,40.5,38.0,29.02,SSW,211,5.0,0.0,91,0.00,BKN,BKN,0.10,WeatherDisplay:10.37,2013-01-31 14:40:00,
2013-01-31 09:50:00,39.4,37.0,29.04,SSW,208,7.0,0.0,91,0.00,BKN,BKN,0.10,WeatherDisplay:10.37,2013-01-31 14:50:00,
2013-01-31 10:00:00,38.3,35.7,29.04,SSW,194,10.0,0.0,90,0.00,BKN,BKN,0.10,WeatherDisplay:10.37,2013-01-31 15:00:00,
2013-01-31 10:10:00,37.0,34.4,29.03,SW,223,3.0,0.0,90,0.00,BKN,BKN,0.10,WeatherDisplay:10.37,2013-01-31 15:10:00,
2013-01-31 10:20:00,37.9,35.2,29.03,SSW,204,7.0,0.0,90,0.00,BKN,BKN,0.10,WeatherDisplay:10.37,2013-01-31 15:20:00,
2013-01-31 10:30:00,37.9,35.2,29.04,SW,219,13.0,0.0,90,0.00,BKN,BKN,0.10,WeatherDisplay:10.37,2013-01-31 15:30:00,
2013-01-31 10:40:00,37.4,34.7,29.06,SW,226,10.0,0.0,90,0.00,BKN,BKN,0.10,WeatherDisplay:10.37,2013-01-31 15:40:00,
2013-01-31 10:50:00,36.9,34.2,29.07,SSW,204,7.0,0.0,90,0.00,BKN,BKN,0.10,WeatherDisplay:10.37,2013-01-31 15:50:00,
2013-01-31 11:00:00,36.9,34.2,29.08,SSW,212,2.0,0.0,90,0.00,BKN,BKN,0.10,WeatherDisplay:10.37,2013-01-31 16:00:00,
2013-01-31 11:10:00,36.6,34.0,29.09,SW,218,9.0,0.0,90,0.00,BKN,BKN,0.10,WeatherDisplay:10.37,2013-01-31 16:10:00,
2013-01-31 11:20:00,36.4,33.4,29.09,SSW,196,16.0,0.0,89,0.00,BKN,BKN,0.10,WeatherDisplay:10.37,2013-01-31 16:20:00,
2013-01-31 12:00:00,36.9,31.0,29.14,SW,226,13.0,0.0,79,0.00,BKN,BKN,0.10,WeatherDisplay:10.37,2013-01-31 17:00:00,
2013-01-31 12:10:00,36.0,29.4,29.16,SW,222,9.0,0.0,77,0.00,BKN,BKN,0.10,WeatherDisplay:10.37,2013-01-31 17:10:00,
2013-01-31 12:20:00,35.9,29.0,29.16,SSW,206,13.0,0.0,76,0.00,BKN,BKN,0.10,WeatherDisplay:10.37,2013-01-31 17:20:00,
2013-01-31 12:30:00,35.2,28.4,29.16,SW,214,14.0,0.0,76,0.00,BKN,BKN,0.10,WeatherDisplay:10.37,2013-01-31 17:30:00,
2013-01-31 12:40:00,35.3,29.2,29.16,SW,215,5.0,0.0,78,0.00,BKN,BKN,0.10,WeatherDisplay:10.37,2013-01-31 17:40:00,
2013-01-31 12:50:00,35.6,30.1,29.17,SSW,200,2.0,0.0,80,0.00,BKN,BKN,0.10,WeatherDisplay:10.37,2013-01-31 17:50:00,
2013-01-31 13:00:00,35.6,29.1,29.18,SSW,203,5.0,0.0,77,0.00,BKN,BKN,0.10,WeatherDisplay:10.37,2013-01-31 18:00:00,
2013-01-31 13:10:00,35.3,28.2,29.18,SW,217,8.0,0.0,75,0.00,BKN,BKN,0.10,WeatherDisplay:10.37,2013-01-31 18:10:00,
2013-01-31 13:20:00,34.7,27.6,29.18,SSW,201,8.0,0.0,75,0.00,BKN,BKN,0.10,WeatherDisplay:10.37,2013-01-31 18:20:00,
2013-01-31 13:30:00,34.9,28.4,29.18,SSW,200,8.0,0.0,77,0.00,BKN,BKN,0.10,WeatherDisplay:10.37,2013-01-31 18:30:00,
2013-01-31 13:40:00,35.2,27.1,29.19,South,191,9.0,0.0,72,0.00,BKN,BKN,0.10,WeatherDisplay:10.37,2013-01-31 18:40:00,
2013-01-31 13:50:00,35.1,26.7,29.19,SSW,195,10.0,0.0,71,0.00,BKN,BKN,0.10,WeatherDisplay:10.37,2013-01-31 18:50:00,
2013-01-31 13:59:00,33.9,25.1,29.21,South,186,7.0,0.0,70,0.00,BKN,BKN,0.10,WeatherDisplay:10.37,2013-01-31 18:59:00,
2013-01-31 14:10:00,32.9,24.9,29.22,SSW,209,7.0,0.0,72,0.00,BKN,BKN,0.10,WeatherDisplay:10.37,2013-01-31 19:10:00,
2013-01-31 14:20:00,32.9,23.8,29.24,SSW,192,14.0,0.0,69,0.00,BKN,BKN,0.10,WeatherDisplay:10.37,2013-01-31 19:20:00,
2013-01-31 14:30:00,33.4,23.3,29.24,SSW,192,12.0,0.0,66,0.00,BKN,BKN,0.10,WeatherDisplay:10.37,2013-01-31 19:30:00,
2013-01-31 14:40:00,32.8,24.0,29.25,SSW,207,1.0,0.0,70,0.00,BKN,BKN,0.10,WeatherDisplay:10.37,2013-01-31 19:40:00,
2013-01-31 14:50:00,32.7,23.3,29.25,SSW,197,13.0,0.0,68,0.00,BKN,BKN,0.10,WeatherDisplay:10.37,2013-01-31 19:50:00,
2013-01-31 14:59:00,33.2,22.4,29.26,SSW,192,16.0,0.0,64,0.00,BKN,BKN,0.10,WeatherDisplay:10.37,2013-01-31 19:59:00,
2013-01-31 15:10:00,33.2,23.1,29.27,SSW,205,6.0,0.0,66,0.00,BKN,BKN,0.10,WeatherDisplay:10.37,2013-01-31 20:10:00,
2013-01-31 15:20:00,32.4,21.2,29.28,SSW,212,10.0,0.0,63,0.00,BKN,BKN,0.10,WeatherDisplay:10.37,2013-01-31 20:20:00,
2013-01-31 15:30:00,31.6,21.2,29.29,SW,225,8.0,0.0,65,0.00,BKN,BKN,0.10,WeatherDisplay:10.37,2013-01-31 20:30:00,
2013-01-31 15:40:00,30.9,19.8,29.29,SW,229,12.0,0.0,63,0.00,BKN,BKN,0.10,WeatherDisplay:10.37,2013-01-31 20:40:00,
2013-01-31 15:50:00,30.9,20.5,29.31,SSW,212,9.0,0.0,65,0.00,BKN,BKN,0.10,WeatherDisplay:10.37,2013-01-31 20:50:00,
2013-01-31 16:00:00,30.9,20.9,29.31,SW,217,3.0,0.0,66,0.00,BKN,BKN,0.10,WeatherDisplay:10.37,2013-01-31 21:00:00,
2013-01-31 16:10:00,30.7,20.4,29.32,WSW,240,8.0,0.0,65,0.00,BKN,BKN,0.10,WeatherDisplay:10.37,2013-01-31 21:10:00,
2013-01-31 16:20:00,30.5,20.1,29.32,SW,220,7.0,0.0,65,0.00,BKN,BKN,0.10,WeatherDisplay:10.37,2013-01-31 21:20:00,
2013-01-31 16:30:00,30.7,20.0,29.33,SW,226,8.0,0.0,64,0.00,BKN,BKN,0.10,WeatherDisplay:10.37,2013-01-31 21:30:00,
2013-01-31 16:40:00,30.7,18.1,29.33,SW,228,14.0,0.0,59,0.00,BKN,BKN,0.10,WeatherDisplay:10.37,2013-01-31 21:40:00,
2013-01-31 16:50:00,30.7,16.5,29.33,SSW,211,17.0,0.0,55,0.00,BKN,BKN,0.10,WeatherDisplay:10.37,2013-01-31 21:50:00,
2013-01-31 16:59:00,30.6,18.3,29.34,SSW,202,10.0,0.0,60,0.00,BKN,BKN,0.10,WeatherDisplay:10.37,2013-01-31 21:59:00,
2013-01-31 17:10:00,30.2,18.7,29.34,SSW,210,7.0,0.0,62,0.00,BKN,BKN,0.10,WeatherDisplay:10.37,2013-01-31 22:10:00,
2013-01-31 17:20:00,30.2,18.4,29.35,SW,223,8.0,0.0,61,0.00,BKN,BKN,0.10,WeatherDisplay:10.37,2013-01-31 22:20:00,
2013-01-31 17:30:00,29.8,17.2,29.35,SSW,213,8.0,0.0,59,0.00,BKN,BKN,0.10,WeatherDisplay:10.37,2013-01-31 22:30:00,
2013-01-31 17:40:00,29.3,18.6,29.36,SSW,209,2.0,0.0,64,0.00,BKN,BKN,0.10,WeatherDisplay:10.37,2013-01-31 22:40:00,
2013-01-31 17:50:00,28.8,18.5,29.37,WSW,243,3.0,0.0,65,0.00,BKN,BKN,0.10,WeatherDisplay:10.37,2013-01-31 22:50:00,
2013-01-31 17:59:00,28.4,17.4,29.39,SSW,200,6.0,0.0,63,0.00,BKN,BKN,0.10,WeatherDisplay:10.37,2013-01-31 22:59:00,
2013-01-31 18:10:00,28.6,16.8,29.39,SW,233,12.0,0.0,61,0.00,BKN,BKN,0.10,WeatherDisplay:10.37,2013-01-31 23:10:00,
2013-01-31 18:20:00,28.0,16.7,29.39,SW,222,1.0,0.0,62,0.00,BKN,BKN,0.10,WeatherDisplay:10.37,2013-01-31 23:20:00,
2013-01-31 18:30:00,27.8,17.2,29.39,SSW,198,6.0,0.0,64,0.00,BKN,BKN,0.10,WeatherDisplay:10.37,2013-01-31 23:30:00,
2013-01-31 18:40:00,27.6,16.3,29.39,SW,215,9.0,0.0,62,0.00,BKN,BKN,0.10,WeatherDisplay:10.37,2013-01-31 23:40:00,
2013-01-31 18:50:00,27.5,16.5,29.40,SSW,192,7.0,0.0,63,0.00,BKN,BKN,0.10,WeatherDisplay:10.37,2013-01-31 23:50:00,
2013-01-31 19:00:00,27.7,15.6,29.40,SW,227,7.0,0.0,60,0.00,BKN,BKN,0.10,WeatherDisplay:10.37,2013-02-01 00:00:00,
2013-01-31 19:10:00,28.0,15.9,29.42,SW,215,3.0,0.0,60,0.00,BKN,BKN,0.10,WeatherDisplay:10.37,2013-02-01 00:10:00,
2013-01-31 19:20:00,28.0,17.4,29.42,SSW,206,5.0,0.0,64,0.00,BKN,BKN,0.10,WeatherDisplay:10.37,2013-02-01 00:20:00,
2013-01-31 19:30:00,27.9,15.8,29.43,SSW,207,2.0,0.0,60,0.00,BKN,BKN,0.10,WeatherDisplay:10.37,2013-02-01 00:30:00,
2013-01-31 19:40:00,27.5,16.5,29.43,SSW,207,5.0,0.0,63,0.00,BKN,BKN,0.10,WeatherDisplay:10.37,2013-02-01 00:40:00,
2013-01-31 19:50:00,27.1,16.9,29.44,SSW,193,3.0,0.0,65,0.00,BKN,BKN,0.10,WeatherDisplay:10.37,2013-02-01 00:50:00,
2013-01-31 19:59:00,27.3,15.6,29.44,SSW,213,7.0,0.0,61,0.00,BKN,BKN,0.10,WeatherDisplay:10.37,2013-02-01 00:59:00,
2013-01-31 20:10:00,27.1,14.7,29.44,SW,214,6.0,0.0,59,0.00,BKN,BKN,0.10,WeatherDisplay:10.37,2013-02-01 01:10:00,
2013-01-31 20:20:00,26.8,13.2,29.44,SSW,212,10.0,0.0,56,0.00,BKN,BKN,0.10,WeatherDisplay:10.37,2013-02-01 01:20:00,
2013-01-31 20:30:00,26.6,12.6,29.45,SW,216,12.0,0.0,55,0.00,BKN,BKN,0.10,WeatherDisplay:10.37,2013-02-01 01:30:00,
2013-01-31 20:40:00,26.4,11.6,29.46,SW,221,7.0,0.0,53,0.00,BKN,BKN,0.10,WeatherDisplay:10.37,2013-02-01 01:40:00,
2013-01-31 20:50:00,25.7,13.0,29.47,SW,220,10.0,0.0,58,0.00,BKN,BKN,0.10,WeatherDisplay:10.37,2013-02-01 01:50:00,
2013-01-31 20:59:00,25.9,11.5,29.46,SW,217,12.0,0.0,54,0.00,BKN,BKN,0.10,WeatherDisplay:10.37,2013-02-01 01:59:00,
2013-01-31 21:10:00,25.9,11.5,29.46,SSW,201,10.0,0.0,54,0.00,BKN,BKN,0.10,WeatherDisplay:10.37,2013-02-01 02:10:00,
2013-01-31 21:20:00,26.0,10.8,29.47,SSW,203,12.0,0.0,52,0.00,BKN,BKN,0.10,WeatherDisplay:10.37,2013-02-01 02:20:00,
2013-01-31 21:30:00,25.7,10.5,29.47,SSW,204,14.0,0.0,52,0.00,BKN,BKN,0.10,WeatherDisplay:10.37,2013-02-01 02:30:00,
2013-01-31 21:40:00,25.3,11.4,29.48,SW,218,1.0,0.0,55,0.00,BKN,BKN,0.10,WeatherDisplay:10.37,2013-02-01 02:40:00,
2013-01-31 21:50:00,25.2,10.8,29.48,SSW,210,6.0,0.0,54,0.00,BKN,BKN,0.10,WeatherDisplay:10.37,2013-02-01 02:50:00,
2013-01-31 22:00:00,25.2,10.4,29.48,SSW,206,8.0,0.0,53,0.00,BKN,BKN,0.10,WeatherDisplay:10.37,2013-02-01 03:00:00,
2013-01-31 22:10:00,25.2,10.4,29.48,SSW,204,7.0,0.0,53,0.00,BKN,BKN,0.10,WeatherDisplay:10.37,2013-02-01 03:10:00,
2013-01-31 22:20:00,24.8,10.9,29.50,SW,220,2.0,0.0,55,0.00,BKN,BKN,0.10,WeatherDisplay:10.37,2013-02-01 03:20:00,
2013-01-31 22:30:00,24.4,11.0,29.49,SSW,197,5.0,0.0,56,0.00,BKN,BKN,0.10,WeatherDisplay:10.37,2013-02-01 03:30:00,
2013-01-31 22:40:00,24.5,11.1,29.48,SSW,201,9.0,0.0,56,0.00,BKN,BKN,0.10,WeatherDisplay:10.37,2013-02-01 03:40:00,
2013-01-31 22:50:00,24.3,10.8,29.50,SSW,202,7.0,0.0,56,0.00,BKN,BKN,0.10,WeatherDisplay:10.37,2013-02-01 03:50:00,
2013-01-31 22:59:00,24.3,11.6,29.50,SSW,213,3.0,0.0,58,0.00,BKN,BKN,0.10,WeatherDisplay:10.37,2013-02-01 03:59:00,
2013-01-31 23:10:00,24.3,11.2,29.50,SW,215,5.0,0.0,57,0.00,BKN,BKN,0.10,WeatherDisplay:10.37,2013-02-01 04:10:00,
2013-01-31 23:20:00,24.2,11.2,29.50,SW,217,1.0,0.0,57,0.00,BKN,BKN,0.10,WeatherDisplay:10.37,2013-02-01 04:20:00,
2013-01-31 23:30:00,24.1,11.0,29.50,SW,218,3.0,0.0,57,0.00,BKN,BKN,0.10,WeatherDisplay:10.37,2013-02-01 04:30:00,
2013-01-31 23:40:00,24.1,11.5,29.51,SSW,208,7.0,0.0,58,0.00,BKN,BKN,0.10,WeatherDisplay:10.37,2013-02-01 04:40:00,
2013-01-31 23:50:00,23.7,11.5,29.51,SSW,213,1.0,0.0,59,0.00,BKN,BKN,0.10,WeatherDisplay:10.37,2013-02-01 04:50:00,